sensor_id;sensor_type;location;lat;lon;timestamp;P1;durP1;ratioP1;P2;durP2;ratioP2
29214;SDS011;16252;49.816;7.964;2023-04-03T00:00:50;3.03;;;2.05;;
29214;SDS011;16252;49.816;7.964;2023-04-03T00:03:15;3.28;;;2.15;;
29214;SDS011;16252;49.816;7.964;2023-04-03T00:05:41;4.43;;;2.45;;
29214;SDS011;16252;49.816;7.964;2023-04-03T00:08:07;2.85;;;2.15;;
29214;SDS011;16252;49.816;7.964;2023-04-03T00:10:34;2.78;;;2.08;;
29214;SDS011;16252;49.816;7.964;2023-04-03T00:13:00;5.53;;;2.60;;
29214;SDS011;16252;49.816;7.964;2023-04-03T00:15:25;4.22;;;2.45;;
29214;SDS011;16252;49.816;7.964;2023-04-03T00:17:50;2.33;;;2.00;;
29214;SDS011;16252;49.816;7.964;2023-04-03T00:20:16;3.03;;;1.95;;
29214;SDS011;16252;49.816;7.964;2023-04-03T00:22:41;2.83;;;2.20;;
29214;SDS011;16252;49.816;7.964;2023-04-03T00:25:07;3.85;;;2.05;;
29214;SDS011;16252;49.816;7.964;2023-04-03T00:27:32;4.10;;;2.20;;
29214;SDS011;16252;49.816;7.964;2023-04-03T00:29:58;3.15;;;1.92;;
29214;SDS011;16252;49.816;7.964;2023-04-03T00:32:23;2.63;;;2.08;;
29214;SDS011;16252;49.816;7.964;2023-04-03T00:34:48;3.08;;;2.08;;
29214;SDS011;16252;49.816;7.964;2023-04-03T00:37:13;2.78;;;2.28;;
29214;SDS011;16252;49.816;7.964;2023-04-03T00:39:39;2.53;;;1.80;;
29214;SDS011;16252;49.816;7.964;2023-04-03T00:42:04;3.40;;;2.30;;
29214;SDS011;16252;49.816;7.964;2023-04-03T00:46:58;4.90;;;2.00;;
29214;SDS011;16252;49.816;7.964;2023-04-03T00:49:23;2.22;;;2.03;;
29214;SDS011;16252;49.816;7.964;2023-04-03T00:51:49;4.28;;;2.17;;
29214;SDS011;16252;49.816;7.964;2023-04-03T00:54:14;3.17;;;2.10;;
29214;SDS011;16252;49.816;7.964;2023-04-03T00:56:40;3.85;;;1.98;;
29214;SDS011;16252;49.816;7.964;2023-04-03T00:59:08;3.85;;;2.17;;
29214;SDS011;16252;49.816;7.964;2023-04-03T01:01:37;3.05;;;2.05;;
29214;SDS011;16252;49.816;7.964;2023-04-03T01:04:03;3.50;;;2.08;;
29214;SDS011;16252;49.816;7.964;2023-04-03T01:06:33;2.97;;;2.20;;
29214;SDS011;16252;49.816;7.964;2023-04-03T01:09:01;3.13;;;2.22;;
29214;SDS011;16252;49.816;7.964;2023-04-03T01:11:27;2.88;;;2.10;;
29214;SDS011;16252;49.816;7.964;2023-04-03T01:13:52;2.08;;;1.83;;
29214;SDS011;16252;49.816;7.964;2023-04-03T01:16:18;5.95;;;2.15;;
29214;SDS011;16252;49.816;7.964;2023-04-03T01:18:44;3.88;;;2.05;;
29214;SDS011;16252;49.816;7.964;2023-04-03T01:24:11;2.50;;;1.90;;
29214;SDS011;16252;49.816;7.964;2023-04-03T01:26:59;1.92;;;1.70;;
29214;SDS011;16252;49.816;7.964;2023-04-03T01:29:28;1.88;;;1.63;;
29214;SDS011;16252;49.816;7.964;2023-04-03T01:31:57;3.58;;;2.15;;
29214;SDS011;16252;49.816;7.964;2023-04-03T01:34:24;2.75;;;1.83;;
29214;SDS011;16252;49.816;7.964;2023-04-03T01:36:50;3.17;;;2.25;;
29214;SDS011;16252;49.816;7.964;2023-04-03T01:39:17;2.80;;;1.73;;
29214;SDS011;16252;49.816;7.964;2023-04-03T01:41:42;2.25;;;2.00;;
29214;SDS011;16252;49.816;7.964;2023-04-03T01:44:08;2.03;;;1.80;;
29214;SDS011;16252;49.816;7.964;2023-04-03T01:46:34;3.22;;;1.88;;
29214;SDS011;16252;49.816;7.964;2023-04-03T01:49:00;2.08;;;1.63;;
29214;SDS011;16252;49.816;7.964;2023-04-03T01:51:25;3.10;;;1.77;;
29214;SDS011;16252;49.816;7.964;2023-04-03T01:53:51;5.13;;;1.80;;
29214;SDS011;16252;49.816;7.964;2023-04-03T01:56:16;4.75;;;2.00;;
29214;SDS011;16252;49.816;7.964;2023-04-03T01:58:41;4.10;;;1.95;;
29214;SDS011;16252;49.816;7.964;2023-04-03T02:01:07;3.17;;;1.63;;
29214;SDS011;16252;49.816;7.964;2023-04-03T02:03:32;3.25;;;1.80;;
29214;SDS011;16252;49.816;7.964;2023-04-03T02:05:57;2.53;;;1.70;;
29214;SDS011;16252;49.816;7.964;2023-04-03T02:08:24;3.53;;;2.05;;
29214;SDS011;16252;49.816;7.964;2023-04-03T02:10:49;2.58;;;1.90;;
29214;SDS011;16252;49.816;7.964;2023-04-03T02:13:15;3.17;;;1.90;;
29214;SDS011;16252;49.816;7.964;2023-04-03T02:15:42;2.85;;;1.85;;
29214;SDS011;16252;49.816;7.964;2023-04-03T02:18:07;3.70;;;1.65;;
29214;SDS011;16252;49.816;7.964;2023-04-03T02:20:33;2.80;;;2.08;;
29214;SDS011;16252;49.816;7.964;2023-04-03T02:22:59;2.50;;;1.52;;
29214;SDS011;16252;49.816;7.964;2023-04-03T02:25:25;2.70;;;1.83;;
29214;SDS011;16252;49.816;7.964;2023-04-03T02:27:51;2.80;;;1.60;;
29214;SDS011;16252;49.816;7.964;2023-04-03T02:30:16;3.35;;;1.60;;
29214;SDS011;16252;49.816;7.964;2023-04-03T02:32:42;2.35;;;1.85;;
29214;SDS011;16252;49.816;7.964;2023-04-03T02:35:08;2.42;;;1.95;;
29214;SDS011;16252;49.816;7.964;2023-04-03T02:37:34;4.35;;;1.85;;
29214;SDS011;16252;49.816;7.964;2023-04-03T02:39:59;3.03;;;1.85;;
29214;SDS011;16252;49.816;7.964;2023-04-03T02:42:25;2.72;;;1.80;;
29214;SDS011;16252;49.816;7.964;2023-04-03T02:44:50;2.92;;;1.70;;
29214;SDS011;16252;49.816;7.964;2023-04-03T02:47:15;2.63;;;1.90;;
29214;SDS011;16252;49.816;7.964;2023-04-03T02:49:41;2.65;;;1.80;;
29214;SDS011;16252;49.816;7.964;2023-04-03T02:52:08;3.03;;;1.75;;
29214;SDS011;16252;49.816;7.964;2023-04-03T02:54:34;2.38;;;1.83;;
29214;SDS011;16252;49.816;7.964;2023-04-03T02:56:59;6.38;;;2.05;;
29214;SDS011;16252;49.816;7.964;2023-04-03T02:59:25;3.38;;;1.70;;
29214;SDS011;16252;49.816;7.964;2023-04-03T03:01:50;3.72;;;1.90;;
29214;SDS011;16252;49.816;7.964;2023-04-03T03:04:15;4.00;;;1.90;;
29214;SDS011;16252;49.816;7.964;2023-04-03T03:06:40;3.50;;;2.10;;
29214;SDS011;16252;49.816;7.964;2023-04-03T03:09:06;2.72;;;1.90;;
29214;SDS011;16252;49.816;7.964;2023-04-03T03:11:31;4.65;;;1.92;;
29214;SDS011;16252;49.816;7.964;2023-04-03T03:13:57;2.17;;;1.80;;
29214;SDS011;16252;49.816;7.964;2023-04-03T03:16:22;3.97;;;2.15;;
29214;SDS011;16252;49.816;7.964;2023-04-03T03:18:48;3.03;;;1.73;;
29214;SDS011;16252;49.816;7.964;2023-04-03T03:21:13;1.90;;;1.63;;
29214;SDS011;16252;49.816;7.964;2023-04-03T03:23:39;3.10;;;1.90;;
29214;SDS011;16252;49.816;7.964;2023-04-03T03:26:06;4.63;;;1.73;;
29214;SDS011;16252;49.816;7.964;2023-04-03T03:28:34;3.38;;;1.90;;
29214;SDS011;16252;49.816;7.964;2023-04-03T03:31:01;2.80;;;1.70;;
29214;SDS011;16252;49.816;7.964;2023-04-03T03:33:27;2.92;;;1.70;;
29214;SDS011;16252;49.816;7.964;2023-04-03T03:35:53;1.88;;;1.48;;
29214;SDS011;16252;49.816;7.964;2023-04-03T03:38:19;2.75;;;1.60;;
29214;SDS011;16252;49.816;7.964;2023-04-03T03:40:44;1.98;;;1.52;;
29214;SDS011;16252;49.816;7.964;2023-04-03T03:43:12;2.80;;;1.90;;
29214;SDS011;16252;49.816;7.964;2023-04-03T03:45:37;3.17;;;1.90;;
29214;SDS011;16252;49.816;7.964;2023-04-03T03:48:02;2.40;;;1.60;;
29214;SDS011;16252;49.816;7.964;2023-04-03T03:50:28;2.70;;;1.90;;
29214;SDS011;16252;49.816;7.964;2023-04-03T03:52:53;1.40;;;1.30;;
29214;SDS011;16252;49.816;7.964;2023-04-03T03:55:18;2.03;;;1.60;;
29214;SDS011;16252;49.816;7.964;2023-04-03T03:57:43;3.08;;;1.77;;
29214;SDS011;16252;49.816;7.964;2023-04-03T04:00:09;2.78;;;1.63;;
29214;SDS011;16252;49.816;7.964;2023-04-03T04:02:35;3.10;;;1.77;;
29214;SDS011;16252;49.816;7.964;2023-04-03T04:05:00;2.20;;;1.80;;
29214;SDS011;16252;49.816;7.964;2023-04-03T04:07:26;3.05;;;1.88;;
29214;SDS011;16252;49.816;7.964;2023-04-03T04:09:53;2.72;;;1.80;;
29214;SDS011;16252;49.816;7.964;2023-04-03T04:12:18;3.03;;;2.00;;
29214;SDS011;16252;49.816;7.964;2023-04-03T04:14:43;3.13;;;2.10;;
29214;SDS011;16252;49.816;7.964;2023-04-03T04:17:11;3.10;;;1.85;;
29214;SDS011;16252;49.816;7.964;2023-04-03T04:19:36;4.35;;;1.80;;
29214;SDS011;16252;49.816;7.964;2023-04-03T04:22:02;2.38;;;1.80;;
29214;SDS011;16252;49.816;7.964;2023-04-03T04:24:27;2.20;;;1.45;;
29214;SDS011;16252;49.816;7.964;2023-04-03T04:26:52;1.65;;;1.55;;
29214;SDS011;16252;49.816;7.964;2023-04-03T04:29:17;3.25;;;1.90;;
29214;SDS011;16252;49.816;7.964;2023-04-03T04:31:43;2.38;;;1.60;;
29214;SDS011;16252;49.816;7.964;2023-04-03T04:34:08;4.43;;;1.55;;
29214;SDS011;16252;49.816;7.964;2023-04-03T04:36:33;2.50;;;1.90;;
29214;SDS011;16252;49.816;7.964;2023-04-03T04:38:58;3.95;;;1.63;;
29214;SDS011;16252;49.816;7.964;2023-04-03T04:41:24;2.10;;;1.38;;
29214;SDS011;16252;49.816;7.964;2023-04-03T04:43:50;2.40;;;1.60;;
29214;SDS011;16252;49.816;7.964;2023-04-03T04:46:16;4.05;;;1.70;;
29214;SDS011;16252;49.816;7.964;2023-04-03T04:48:42;3.00;;;1.90;;
29214;SDS011;16252;49.816;7.964;2023-04-03T04:51:07;3.40;;;1.73;;
29214;SDS011;16252;49.816;7.964;2023-04-03T04:53:33;3.10;;;1.92;;
29214;SDS011;16252;49.816;7.964;2023-04-03T04:55:58;3.53;;;1.65;;
29214;SDS011;16252;49.816;7.964;2023-04-03T04:58:24;3.15;;;1.80;;
29214;SDS011;16252;49.816;7.964;2023-04-03T05:00:49;2.00;;;1.75;;
29214;SDS011;16252;49.816;7.964;2023-04-03T05:03:14;3.40;;;1.63;;
29214;SDS011;16252;49.816;7.964;2023-04-03T05:05:40;1.92;;;1.45;;
29214;SDS011;16252;49.816;7.964;2023-04-03T05:08:05;3.08;;;1.83;;
29214;SDS011;16252;49.816;7.964;2023-04-03T05:10:31;4.13;;;1.88;;
29214;SDS011;16252;49.816;7.964;2023-04-03T05:12:56;3.13;;;1.58;;
29214;SDS011;16252;49.816;7.964;2023-04-03T05:15:22;4.50;;;1.80;;
29214;SDS011;16252;49.816;7.964;2023-04-03T05:17:47;3.13;;;1.50;;
29214;SDS011;16252;49.816;7.964;2023-04-03T05:20:12;3.55;;;2.08;;
29214;SDS011;16252;49.816;7.964;2023-04-03T05:22:38;3.30;;;1.33;;
29214;SDS011;16252;49.816;7.964;2023-04-03T05:25:04;3.70;;;1.50;;
29214;SDS011;16252;49.816;7.964;2023-04-03T05:27:30;3.80;;;1.48;;
29214;SDS011;16252;49.816;7.964;2023-04-03T05:29:55;3.50;;;1.60;;
29214;SDS011;16252;49.816;7.964;2023-04-03T05:32:21;4.22;;;1.90;;
29214;SDS011;16252;49.816;7.964;2023-04-03T05:34:47;4.95;;;2.20;;
29214;SDS011;16252;49.816;7.964;2023-04-03T05:37:12;5.40;;;2.70;;
29214;SDS011;16252;49.816;7.964;2023-04-03T05:39:40;6.28;;;2.25;;
29214;SDS011;16252;49.816;7.964;2023-04-03T05:42:06;4.95;;;2.30;;
29214;SDS011;16252;49.816;7.964;2023-04-03T05:44:33;3.42;;;1.83;;
29214;SDS011;16252;49.816;7.964;2023-04-03T05:46:58;2.60;;;1.70;;
29214;SDS011;16252;49.816;7.964;2023-04-03T05:49:24;2.38;;;1.58;;
29214;SDS011;16252;49.816;7.964;2023-04-03T05:51:50;3.85;;;2.10;;
29214;SDS011;16252;49.816;7.964;2023-04-03T05:54:23;6.68;;;1.60;;
29214;SDS011;16252;49.816;7.964;2023-04-03T05:56:53;2.63;;;1.38;;
29214;SDS011;16252;49.816;7.964;2023-04-03T05:59:19;4.43;;;1.67;;
29214;SDS011;16252;49.816;7.964;2023-04-03T06:01:45;4.13;;;1.77;;
29214;SDS011;16252;49.816;7.964;2023-04-03T06:04:10;3.53;;;2.35;;
29214;SDS011;16252;49.816;7.964;2023-04-03T06:06:43;3.85;;;2.25;;
29214;SDS011;16252;49.816;7.964;2023-04-03T06:09:12;5.38;;;2.50;;
29214;SDS011;16252;49.816;7.964;2023-04-03T06:11:37;5.18;;;2.90;;
29214;SDS011;16252;49.816;7.964;2023-04-03T06:14:02;5.93;;;3.35;;
29214;SDS011;16252;49.816;7.964;2023-04-03T06:16:28;6.68;;;3.30;;
29214;SDS011;16252;49.816;7.964;2023-04-03T06:18:53;4.65;;;2.85;;
29214;SDS011;16252;49.816;7.964;2023-04-03T06:21:19;4.68;;;2.38;;
29214;SDS011;16252;49.816;7.964;2023-04-03T06:23:45;5.30;;;2.45;;
29214;SDS011;16252;49.816;7.964;2023-04-03T06:26:10;3.40;;;1.88;;
29214;SDS011;16252;49.816;7.964;2023-04-03T06:28:36;9.82;;;2.40;;
29214;SDS011;16252;49.816;7.964;2023-04-03T06:31:01;3.50;;;1.75;;
29214;SDS011;16252;49.816;7.964;2023-04-03T06:33:26;4.43;;;1.92;;
29214;SDS011;16252;49.816;7.964;2023-04-03T06:35:55;4.55;;;1.63;;
29214;SDS011;16252;49.816;7.964;2023-04-03T06:38:23;5.00;;;1.80;;
29214;SDS011;16252;49.816;7.964;2023-04-03T06:40:52;5.22;;;1.90;;
29214;SDS011;16252;49.816;7.964;2023-04-03T06:43:20;3.45;;;1.75;;
29214;SDS011;16252;49.816;7.964;2023-04-03T06:45:46;6.22;;;2.50;;
29214;SDS011;16252;49.816;7.964;2023-04-03T06:48:12;3.95;;;1.80;;
29214;SDS011;16252;49.816;7.964;2023-04-03T06:50:37;5.45;;;1.98;;
29214;SDS011;16252;49.816;7.964;2023-04-03T06:53:06;3.08;;;1.92;;
29214;SDS011;16252;49.816;7.964;2023-04-03T06:55:32;5.18;;;1.83;;
29214;SDS011;16252;49.816;7.964;2023-04-03T06:57:58;3.58;;;1.67;;
29214;SDS011;16252;49.816;7.964;2023-04-03T07:00:24;5.28;;;2.30;;
29214;SDS011;16252;49.816;7.964;2023-04-03T07:02:49;6.75;;;1.98;;
29214;SDS011;16252;49.816;7.964;2023-04-03T07:05:15;4.15;;;1.92;;
29214;SDS011;16252;49.816;7.964;2023-04-03T07:07:40;5.50;;;2.50;;
29214;SDS011;16252;49.816;7.964;2023-04-03T07:10:06;5.35;;;2.08;;
29214;SDS011;16252;49.816;7.964;2023-04-03T07:12:32;3.95;;;2.03;;
29214;SDS011;16252;49.816;7.964;2023-04-03T07:14:58;5.47;;;2.50;;
29214;SDS011;16252;49.816;7.964;2023-04-03T07:17:24;4.03;;;2.30;;
29214;SDS011;16252;49.816;7.964;2023-04-03T07:19:50;7.00;;;2.45;;
29214;SDS011;16252;49.816;7.964;2023-04-03T07:22:15;5.63;;;2.30;;
29214;SDS011;16252;49.816;7.964;2023-04-03T07:24:41;5.63;;;2.15;;
29214;SDS011;16252;49.816;7.964;2023-04-03T07:27:06;8.90;;;1.90;;
29214;SDS011;16252;49.816;7.964;2023-04-03T07:29:33;5.13;;;2.00;;
29214;SDS011;16252;49.816;7.964;2023-04-03T07:32:02;5.47;;;1.98;;
29214;SDS011;16252;49.816;7.964;2023-04-03T07:34:28;5.88;;;2.58;;
29214;SDS011;16252;49.816;7.964;2023-04-03T07:36:53;3.05;;;1.88;;
29214;SDS011;16252;49.816;7.964;2023-04-03T07:39:19;2.97;;;2.10;;
29214;SDS011;16252;49.816;7.964;2023-04-03T07:41:45;4.88;;;2.40;;
29214;SDS011;16252;49.816;7.964;2023-04-03T07:44:10;4.20;;;2.00;;
29214;SDS011;16252;49.816;7.964;2023-04-03T07:46:36;3.25;;;1.95;;
29214;SDS011;16252;49.816;7.964;2023-04-03T07:49:02;5.18;;;2.05;;
29214;SDS011;16252;49.816;7.964;2023-04-03T07:51:28;6.97;;;2.50;;
29214;SDS011;16252;49.816;7.964;2023-04-03T07:53:54;5.57;;;2.30;;
29214;SDS011;16252;49.816;7.964;2023-04-03T07:56:20;5.07;;;2.17;;
29214;SDS011;16252;49.816;7.964;2023-04-03T07:58:45;7.00;;;2.38;;
29214;SDS011;16252;49.816;7.964;2023-04-03T08:01:11;3.88;;;2.30;;
29214;SDS011;16252;49.816;7.964;2023-04-03T08:03:36;4.68;;;2.08;;
29214;SDS011;16252;49.816;7.964;2023-04-03T08:06:03;7.18;;;2.20;;
29214;SDS011;16252;49.816;7.964;2023-04-03T08:08:29;2.60;;;1.90;;
29214;SDS011;16252;49.816;7.964;2023-04-03T08:10:57;2.88;;;1.85;;
29214;SDS011;16252;49.816;7.964;2023-04-03T08:13:23;5.03;;;2.53;;
29214;SDS011;16252;49.816;7.964;2023-04-03T08:15:49;4.47;;;2.60;;
29214;SDS011;16252;49.816;7.964;2023-04-03T08:18:15;5.53;;;2.00;;
29214;SDS011;16252;49.816;7.964;2023-04-03T08:20:41;3.90;;;1.90;;
29214;SDS011;16252;49.816;7.964;2023-04-03T08:23:07;4.20;;;1.98;;
29214;SDS011;16252;49.816;7.964;2023-04-03T08:25:34;5.97;;;2.33;;
29214;SDS011;16252;49.816;7.964;2023-04-03T08:28:03;4.82;;;2.10;;
29214;SDS011;16252;49.816;7.964;2023-04-03T08:30:28;4.13;;;2.20;;
29214;SDS011;16252;49.816;7.964;2023-04-03T08:32:54;5.70;;;3.20;;
29214;SDS011;16252;49.816;7.964;2023-04-03T08:35:20;4.05;;;2.40;;
29214;SDS011;16252;49.816;7.964;2023-04-03T08:37:45;4.32;;;2.10;;
29214;SDS011;16252;49.816;7.964;2023-04-03T08:40:13;3.08;;;1.80;;
29214;SDS011;16252;49.816;7.964;2023-04-03T08:47:53;3.97;;;1.90;;
29214;SDS011;16252;49.816;7.964;2023-04-03T08:50:30;6.80;;;2.13;;
29214;SDS011;16252;49.816;7.964;2023-04-03T08:52:59;3.13;;;1.77;;
29214;SDS011;16252;49.816;7.964;2023-04-03T08:55:33;6.00;;;1.75;;
29214;SDS011;16252;49.816;7.964;2023-04-03T09:00:47;3.35;;;1.83;;
29214;SDS011;16252;49.816;7.964;2023-04-03T09:05:48;4.68;;;1.85;;
29214;SDS011;16252;49.816;7.964;2023-04-03T09:08:23;3.63;;;1.98;;
29214;SDS011;16252;49.816;7.964;2023-04-03T09:11:09;2.75;;;1.80;;
29214;SDS011;16252;49.816;7.964;2023-04-03T09:16:53;3.13;;;1.85;;
29214;SDS011;16252;49.816;7.964;2023-04-03T09:19:36;3.28;;;1.95;;
29214;SDS011;16252;49.816;7.964;2023-04-03T09:22:17;4.40;;;1.75;;
29214;SDS011;16252;49.816;7.964;2023-04-03T09:25:02;2.70;;;1.38;;
29214;SDS011;16252;49.816;7.964;2023-04-03T09:27:35;3.67;;;1.45;;
29214;SDS011;16252;49.816;7.964;2023-04-03T09:30:00;3.03;;;1.52;;
29214;SDS011;16252;49.816;7.964;2023-04-03T09:32:30;2.83;;;1.65;;
29214;SDS011;16252;49.816;7.964;2023-04-03T09:34:59;6.60;;;1.70;;
29214;SDS011;16252;49.816;7.964;2023-04-03T09:40:05;2.45;;;1.17;;
29214;SDS011;16252;49.816;7.964;2023-04-03T09:42:55;3.00;;;1.38;;
29214;SDS011;16252;49.816;7.964;2023-04-03T09:45:35;3.40;;;1.33;;
29214;SDS011;16252;49.816;7.964;2023-04-03T09:48:05;1.48;;;1.35;;
29214;SDS011;16252;49.816;7.964;2023-04-03T09:50:32;3.30;;;1.30;;
29214;SDS011;16252;49.816;7.964;2023-04-03T09:52:59;3.22;;;1.42;;
29214;SDS011;16252;49.816;7.964;2023-04-03T09:55:30;2.83;;;1.23;;
29214;SDS011;16252;49.816;7.964;2023-04-03T09:58:03;1.50;;;1.10;;
29214;SDS011;16252;49.816;7.964;2023-04-03T10:00:33;2.30;;;1.10;;
29214;SDS011;16252;49.816;7.964;2023-04-03T10:03:04;2.65;;;0.85;;
29214;SDS011;16252;49.816;7.964;2023-04-03T10:05:34;2.20;;;1.23;;
29214;SDS011;16252;49.816;7.964;2023-04-03T10:10:43;2.40;;;1.27;;
29214;SDS011;16252;49.816;7.964;2023-04-03T10:13:12;2.65;;;1.40;;
29214;SDS011;16252;49.816;7.964;2023-04-03T10:15:44;2.80;;;1.20;;
29214;SDS011;16252;49.816;7.964;2023-04-03T10:18:24;1.73;;;1.10;;
29214;SDS011;16252;49.816;7.964;2023-04-03T10:20:59;3.13;;;1.17;;
29214;SDS011;16252;49.816;7.964;2023-04-03T10:23:38;7.28;;;1.25;;
29214;SDS011;16252;49.816;7.964;2023-04-03T10:29:02;2.97;;;1.20;;
29214;SDS011;16252;49.816;7.964;2023-04-03T10:34:25;1.83;;;1.02;;
29214;SDS011;16252;49.816;7.964;2023-04-03T10:37:14;4.70;;;1.73;;
29214;SDS011;16252;49.816;7.964;2023-04-03T10:39:52;5.07;;;2.58;;
29214;SDS011;16252;49.816;7.964;2023-04-03T10:42:31;3.28;;;1.58;;
29214;SDS011;16252;49.816;7.964;2023-04-03T10:48:18;2.63;;;1.30;;
29214;SDS011;16252;49.816;7.964;2023-04-03T10:53:40;2.47;;;1.40;;
29214;SDS011;16252;49.816;7.964;2023-04-03T10:59:01;3.05;;;1.33;;
29214;SDS011;16252;49.816;7.964;2023-04-03T11:01:33;2.63;;;1.35;;
29214;SDS011;16252;49.816;7.964;2023-04-03T11:04:04;2.45;;;1.50;;
29214;SDS011;16252;49.816;7.964;2023-04-03T11:06:35;2.80;;;1.45;;
29214;SDS011;16252;49.816;7.964;2023-04-03T11:09:23;4.72;;;1.48;;
29214;SDS011;16252;49.816;7.964;2023-04-03T11:11:53;4.45;;;1.50;;
29214;SDS011;16252;49.816;7.964;2023-04-03T11:14:35;2.58;;;1.48;;
29214;SDS011;16252;49.816;7.964;2023-04-03T11:23:03;1.85;;;1.38;;
29214;SDS011;16252;49.816;7.964;2023-04-03T11:25:32;3.15;;;1.60;;
29214;SDS011;16252;49.816;7.964;2023-04-03T11:28:20;4.40;;;1.80;;
29214;SDS011;16252;49.816;7.964;2023-04-03T11:36:24;2.92;;;1.40;;
29214;SDS011;16252;49.816;7.964;2023-04-03T11:38:56;4.00;;;1.42;;
29214;SDS011;16252;49.816;7.964;2023-04-03T11:41:28;2.75;;;1.70;;
29214;SDS011;16252;49.816;7.964;2023-04-03T11:44:03;4.30;;;1.90;;
29214;SDS011;16252;49.816;7.964;2023-04-03T11:46:49;3.38;;;1.67;;
29214;SDS011;16252;49.816;7.964;2023-04-03T12:05:54;3.53;;;1.65;;
29214;SDS011;16252;49.816;7.964;2023-04-03T12:16:20;3.35;;;1.45;;
29214;SDS011;16252;49.816;7.964;2023-04-03T12:21:16;2.17;;;1.55;;
29214;SDS011;16252;49.816;7.964;2023-04-03T12:23:57;2.88;;;1.80;;
29214;SDS011;16252;49.816;7.964;2023-04-03T12:26:30;3.65;;;1.58;;
29214;SDS011;16252;49.816;7.964;2023-04-03T12:34:35;3.88;;;2.13;;
29214;SDS011;16252;49.816;7.964;2023-04-03T12:37:07;3.35;;;1.80;;
29214;SDS011;16252;49.816;7.964;2023-04-03T12:39:55;3.42;;;2.00;;
29214;SDS011;16252;49.816;7.964;2023-04-03T12:42:48;3.40;;;1.70;;
29214;SDS011;16252;49.816;7.964;2023-04-03T12:45:29;3.90;;;1.80;;
29214;SDS011;16252;49.816;7.964;2023-04-03T12:48:15;4.80;;;1.90;;
29214;SDS011;16252;49.816;7.964;2023-04-03T12:50:43;3.00;;;1.58;;
29214;SDS011;16252;49.816;7.964;2023-04-03T12:53:12;3.30;;;1.67;;
29214;SDS011;16252;49.816;7.964;2023-04-03T12:55:42;4.35;;;1.90;;
29214;SDS011;16252;49.816;7.964;2023-04-03T12:58:19;5.30;;;1.90;;
29214;SDS011;16252;49.816;7.964;2023-04-03T13:01:08;5.75;;;1.92;;
29214;SDS011;16252;49.816;7.964;2023-04-03T13:03:36;4.75;;;2.25;;
29214;SDS011;16252;49.816;7.964;2023-04-03T13:06:05;3.55;;;1.88;;
29214;SDS011;16252;49.816;7.964;2023-04-03T13:08:30;7.45;;;2.33;;
29214;SDS011;16252;49.816;7.964;2023-04-03T13:13:24;2.13;;;1.52;;
29214;SDS011;16252;49.816;7.964;2023-04-03T13:15:51;4.13;;;2.33;;
29214;SDS011;16252;49.816;7.964;2023-04-03T13:18:21;5.45;;;2.35;;
29214;SDS011;16252;49.816;7.964;2023-04-03T13:21:05;4.22;;;1.70;;
29214;SDS011;16252;49.816;7.964;2023-04-03T13:23:44;3.92;;;2.33;;
29214;SDS011;16252;49.816;7.964;2023-04-03T13:26:14;4.22;;;1.90;;
29214;SDS011;16252;49.816;7.964;2023-04-03T13:28:42;3.00;;;1.43;;
29214;SDS011;16252;49.816;7.964;2023-04-03T13:33:38;2.28;;;1.65;;
29214;SDS011;16252;49.816;7.964;2023-04-03T13:36:20;3.17;;;1.98;;
29214;SDS011;16252;49.816;7.964;2023-04-03T13:39:22;2.35;;;1.50;;
29214;SDS011;16252;49.816;7.964;2023-04-03T13:41:40;2.40;;;1.70;;
29214;SDS011;16252;49.816;7.964;2023-04-03T13:49:36;3.00;;;1.70;;
29214;SDS011;16252;49.816;7.964;2023-04-03T13:52:47;4.15;;;1.73;;
29214;SDS011;16252;49.816;7.964;2023-04-03T13:57:49;3.20;;;1.90;;
29214;SDS011;16252;49.816;7.964;2023-04-03T14:00:31;2.55;;;1.75;;
29214;SDS011;16252;49.816;7.964;2023-04-03T14:03:21;2.50;;;1.95;;
29214;SDS011;16252;49.816;7.964;2023-04-03T14:05:49;5.40;;;2.15;;
29214;SDS011;16252;49.816;7.964;2023-04-03T14:08:16;3.45;;;2.47;;
29214;SDS011;16252;49.816;7.964;2023-04-03T14:10:42;3.67;;;1.80;;
29214;SDS011;16252;49.816;7.964;2023-04-03T14:13:11;4.32;;;2.15;;
29214;SDS011;16252;49.816;7.964;2023-04-03T14:15:40;3.30;;;1.58;;
29214;SDS011;16252;49.816;7.964;2023-04-03T14:18:05;3.65;;;2.22;;
29214;SDS011;16252;49.816;7.964;2023-04-03T14:20:31;1.90;;;1.58;;
29214;SDS011;16252;49.816;7.964;2023-04-03T14:22:56;1.90;;;1.58;;
29214;SDS011;16252;49.816;7.964;2023-04-03T14:25:22;2.50;;;1.70;;
29214;SDS011;16252;49.816;7.964;2023-04-03T14:27:51;2.78;;;1.70;;
29214;SDS011;16252;49.816;7.964;2023-04-03T14:30:29;4.40;;;2.08;;
29214;SDS011;16252;49.816;7.964;2023-04-03T14:32:56;2.58;;;1.73;;
29214;SDS011;16252;49.816;7.964;2023-04-03T14:35:22;2.30;;;1.70;;
29214;SDS011;16252;49.816;7.964;2023-04-03T14:37:49;3.40;;;1.75;;
29214;SDS011;16252;49.816;7.964;2023-04-03T14:40:18;4.53;;;1.98;;
29214;SDS011;16252;49.816;7.964;2023-04-03T14:45:14;2.90;;;1.65;;
29214;SDS011;16252;49.816;7.964;2023-04-03T14:47:42;2.78;;;1.70;;
29214;SDS011;16252;49.816;7.964;2023-04-03T14:50:12;3.35;;;1.90;;
29214;SDS011;16252;49.816;7.964;2023-04-03T14:52:42;3.33;;;2.13;;
29214;SDS011;16252;49.816;7.964;2023-04-03T14:55:08;4.30;;;2.03;;
29214;SDS011;16252;49.816;7.964;2023-04-03T14:57:34;3.03;;;1.75;;
29214;SDS011;16252;49.816;7.964;2023-04-03T15:00:00;2.78;;;1.90;;
29214;SDS011;16252;49.816;7.964;2023-04-03T15:02:28;1.67;;;1.40;;
29214;SDS011;16252;49.816;7.964;2023-04-03T15:05:01;4.18;;;1.77;;
29214;SDS011;16252;49.816;7.964;2023-04-03T15:07:29;2.55;;;1.77;;
29214;SDS011;16252;49.816;7.964;2023-04-03T15:10:03;2.80;;;1.67;;
29214;SDS011;16252;49.816;7.964;2023-04-03T15:12:50;2.45;;;1.70;;
29214;SDS011;16252;49.816;7.964;2023-04-03T15:15:15;3.83;;;1.67;;
29214;SDS011;16252;49.816;7.964;2023-04-03T15:17:43;2.08;;;1.70;;
29214;SDS011;16252;49.816;7.964;2023-04-03T15:20:16;3.42;;;2.03;;
29214;SDS011;16252;49.816;7.964;2023-04-03T15:22:43;2.25;;;1.77;;
29214;SDS011;16252;49.816;7.964;2023-04-03T15:25:09;3.13;;;1.60;;
29214;SDS011;16252;49.816;7.964;2023-04-03T15:27:35;5.22;;;2.05;;
29214;SDS011;16252;49.816;7.964;2023-04-03T15:30:01;2.45;;;1.73;;
29214;SDS011;16252;49.816;7.964;2023-04-03T15:32:27;4.15;;;1.90;;
29214;SDS011;16252;49.816;7.964;2023-04-03T15:34:53;3.65;;;2.10;;
29214;SDS011;16252;49.816;7.964;2023-04-03T15:37:19;3.20;;;1.90;;
29214;SDS011;16252;49.816;7.964;2023-04-03T15:39:44;5.45;;;1.95;;
29214;SDS011;16252;49.816;7.964;2023-04-03T15:42:09;2.78;;;1.70;;
29214;SDS011;16252;49.816;7.964;2023-04-03T15:44:35;4.70;;;1.67;;
29214;SDS011;16252;49.816;7.964;2023-04-03T15:47:00;5.32;;;2.38;;
29214;SDS011;16252;49.816;7.964;2023-04-03T15:49:26;3.72;;;2.33;;
29214;SDS011;16252;49.816;7.964;2023-04-03T15:51:52;3.25;;;2.13;;
29214;SDS011;16252;49.816;7.964;2023-04-03T15:54:17;3.30;;;2.10;;
29214;SDS011;16252;49.816;7.964;2023-04-03T15:56:43;5.47;;;2.83;;
29214;SDS011;16252;49.816;7.964;2023-04-03T15:59:08;4.95;;;3.22;;
29214;SDS011;16252;49.816;7.964;2023-04-03T16:01:33;3.70;;;2.42;;
29214;SDS011;16252;49.816;7.964;2023-04-03T16:03:59;4.30;;;2.88;;
29214;SDS011;16252;49.816;7.964;2023-04-03T16:06:25;3.33;;;2.20;;
29214;SDS011;16252;49.816;7.964;2023-04-03T16:08:51;7.43;;;2.33;;
29214;SDS011;16252;49.816;7.964;2023-04-03T16:11:16;3.75;;;2.10;;
29214;SDS011;16252;49.816;7.964;2023-04-03T16:13:41;4.13;;;2.58;;
29214;SDS011;16252;49.816;7.964;2023-04-03T16:16:07;6.70;;;3.47;;
29214;SDS011;16252;49.816;7.964;2023-04-03T16:18:33;4.57;;;2.58;;
29214;SDS011;16252;49.816;7.964;2023-04-03T16:21:00;5.60;;;3.05;;
29214;SDS011;16252;49.816;7.964;2023-04-03T16:23:25;6.32;;;2.80;;
29214;SDS011;16252;49.816;7.964;2023-04-03T16:25:50;4.72;;;2.63;;
29214;SDS011;16252;49.816;7.964;2023-04-03T16:28:16;5.32;;;2.78;;
29214;SDS011;16252;49.816;7.964;2023-04-03T16:30:43;3.83;;;2.03;;
29214;SDS011;16252;49.816;7.964;2023-04-03T16:33:10;4.40;;;2.45;;